Time;durP1;ratioP1;P1;durP2;ratioP2;P2;SDS_P1;SDS_P2;PMS_P1;PMS_P2;Temp;Humidity;BMP_temperature;BMP_pressure;BME280_temperature;BME280_humidity;BME280_pressure;Samples;Min_cycle;Max_cycle;Signal;HPM_P1;HPM_P2
2023/01/09 00:02:08;;;;;;;2.22;0.50;;;20.00;59.60;;;;;;5030860;28;20045;-61
2023/01/09 00:04:33;;;;;;;1.27;0.70;;;20.00;59.60;;;;;;5033535;28;20091;-61
2023/01/09 00:06:59;;;;;;;2.65;0.75;;;20.00;59.60;;;;;;5035733;28;20543;-61
2023/01/09 00:09:24;;;;;;;2.05;0.60;;;19.90;59.50;;;;;;5034541;28;20043;-61
2023/01/09 00:11:50;;;;;;;1.98;0.50;;;19.90;59.50;;;;;;5033765;28;20049;-61
2023/01/09 00:14:16;;;;;;;0.88;0.50;;;19.90;59.50;;;;;;5050232;28;20045;-61
2023/01/09 00:16:42;;;;;;;2.75;0.65;;;19.90;59.50;;;;;;5034749;28;20073;-61
2023/01/09 00:19:07;;;;;;;1.60;0.43;;;19.90;59.50;;;;;;5042659;28;20053;-61
2023/01/09 00:21:33;;;;;;;1.55;0.40;;;19.90;59.50;;;;;;5054766;28;20091;-61
2023/01/09 00:23:58;;;;;;;1.98;0.60;;;19.90;59.50;;;;;;5054627;28;20067;-61
2023/01/09 00:26:24;;;;;;;1.38;0.45;;;19.90;59.50;;;;;;5054649;28;20047;-60
2023/01/09 00:28:50;;;;;;;2.35;0.60;;;19.90;59.40;;;;;;5053893;28;20049;-61
2023/01/09 00:31:16;;;;;;;1.10;0.50;;;19.90;59.50;;;;;;5052477;28;20045;-61
2023/01/09 00:33:47;;;;;;;1.30;0.52;;;19.90;59.40;;;;;;5053368;28;20064;-60
2023/01/09 00:36:13;;;;;;;1.10;0.50;;;19.80;59.40;;;;;;5061406;28;20119;-61
2023/01/09 00:38:39;;;;;;;2.10;0.57;;;19.80;59.40;;;;;;5074248;28;20560;-61
2023/01/09 00:41:06;;;;;;;1.02;0.40;;;19.80;59.40;;;;;;5074428;28;20365;-61
2023/01/09 00:43:59;;;;;;;1.13;0.50;;;19.80;60.00;;;;;;5067581;28;20048;-61
2023/01/09 00:46:31;;;;;;;2.42;0.63;;;19.80;59.30;;;;;;5072846;28;20121;-61
2023/01/09 00:48:57;;;;;;;0.85;0.40;;;19.80;59.40;;;;;;5074721;28;20488;-61
2023/01/09 00:51:23;;;;;;;1.98;0.55;;;19.80;59.40;;;;;;5073314;28;20040;-60
2023/01/09 00:53:49;;;;;;;2.03;0.80;;;19.80;59.40;;;;;;5073480;28;20422;-61
2023/01/09 00:56:15;;;;;;;1.98;0.82;;;19.80;59.40;;;;;;5073171;28;20044;-61
2023/01/09 00:58:41;;;;;;;1.65;0.68;;;19.80;59.40;;;;;;5054512;28;20107;-60
2023/01/09 01:01:07;;;;;;;1.15;0.40;;;19.80;59.50;;;;;;5054447;28;20053;-61
2023/01/09 01:03:32;;;;;;;2.35;0.50;;;19.70;59.40;;;;;;5053879;28;20041;-61
2023/01/09 01:08:43;;;;;;;1.38;0.50;;;19.70;59.40;;;;;;5054405;28;20048;-61
2023/01/09 01:11:09;;;;;;;2.92;0.70;;;19.70;59.40;;;;;;5053663;28;20075;-60
2023/01/09 01:13:35;;;;;;;3.25;0.65;;;19.70;59.40;;;;;;5052864;28;20048;-60
2023/01/09 01:16:03;;;;;;;1.27;0.57;;;19.70;59.40;;;;;;5054499;28;20056;-61
2023/01/09 01:18:29;;;;;;;0.80;0.40;;;19.70;59.40;;;;;;5053654;28;20076;-60
2023/01/09 01:20:54;;;;;;;1.90;0.70;;;19.70;59.40;;;;;;5053379;28;20037;-61
2023/01/09 01:23:20;;;;;;;2.28;0.63;;;19.70;59.40;;;;;;5053695;28;20484;-60
2023/01/09 01:25:45;;;;;;;1.63;0.57;;;19.70;59.50;;;;;;5054163;28;20211;-61
2023/01/09 01:28:11;;;;;;;2.55;0.80;;;19.70;59.50;;;;;;5052565;28;20048;-61
2023/01/09 01:30:38;;;;;;;1.38;0.50;;;19.60;59.50;;;;;;5053617;28;20052;-60
2023/01/09 01:33:03;;;;;;;2.22;0.60;;;19.60;59.50;;;;;;5053694;28;20097;-60
2023/01/09 01:35:29;;;;;;;2.45;0.70;;;19.60;59.50;;;;;;5053020;28;20128;-61
2023/01/09 01:37:54;;;;;;;1.75;0.52;;;19.60;59.50;;;;;;5052310;28;20057;-60
2023/01/09 01:40:20;;;;;;;2.08;0.60;;;19.60;59.50;;;;;;5052256;28;20044;-61
2023/01/09 01:42:50;;;;;;;1.52;0.70;;;19.60;59.50;;;;;;5051840;28;20053;-61
2023/01/09 01:45:23;;;;;;;2.70;0.70;;;19.60;59.50;;;;;;5048244;28;20088;-61
2023/01/09 01:47:54;;;;;;;1.33;0.68;;;19.60;59.50;;;;;;5052879;28;20045;-61
2023/01/09 01:50:39;;;;;;;2.17;0.90;;;19.60;59.50;;;;;;5053143;28;20032;-61
2023/01/09 01:53:10;;;;;;;2.58;0.75;;;19.60;59.50;;;;;;5052387;28;20420;-61
2023/01/09 01:56:04;;;;;;;2.92;0.68;;;19.60;59.60;;;;;;5051497;28;20044;-61
2023/01/09 01:58:29;;;;;;;1.10;0.57;;;19.60;59.50;;;;;;5037439;28;20061;-60
2023/01/09 02:00:55;;;;;;;1.67;0.50;;;19.60;59.60;;;;;;5031886;28;20131;-61
2023/01/09 02:03:23;;;;;;;0.82;0.50;;;19.60;59.60;;;;;;5044460;28;20044;-61
2023/01/09 02:05:49;;;;;;;0.93;0.40;;;19.60;59.60;;;;;;5073398;28;20059;-61
2023/01/09 02:08:14;;;;;;;2.67;0.60;;;19.60;59.60;;;;;;5071708;28;20040;-61
2023/01/09 02:10:40;;;;;;;2.15;0.52;;;19.50;59.60;;;;;;5071397;28;20136;-61
2023/01/09 02:13:05;;;;;;;2.10;0.47;;;19.50;59.50;;;;;;5055098;28;20465;-60
2023/01/09 02:15:54;;;;;;;1.75;0.70;;;19.50;59.50;;;;;;5072386;28;20507;-61
2023/01/09 02:18:28;;;;;;;2.47;0.50;;;19.50;59.50;;;;;;5070908;28;20202;-60
2023/01/09 02:21:13;;;;;;;2.33;0.55;;;19.50;59.60;;;;;;5056176;28;20057;-60
2023/01/09 02:24:03;;;;;;;2.03;0.50;;;19.50;59.60;;;;;;5015647;28;20120;-60
2023/01/09 02:26:33;;;;;;;1.00;0.47;;;19.50;59.50;;;;;;5030668;28;20410;-60
2023/01/09 02:29:30;;;;;;;1.33;0.45;;;19.50;59.60;;;;;;5032996;28;20041;-60
2023/01/09 02:31:59;;;;;;;1.27;0.50;;;19.50;59.50;;;;;;5014529;28;20053;-61
2023/01/09 02:34:50;;;;;;;1.45;0.50;;;19.50;59.60;;;;;;5032197;28;20041;-61
2023/01/09 02:37:33;;;;;;;1.33;0.50;;;19.40;59.50;;;;;;5043217;28;20043;-61
2023/01/09 02:40:17;;;;;;;1.85;0.52;;;19.40;59.60;;;;;;5057001;28;20502;-60
2023/01/09 02:42:42;;;;;;;1.48;0.40;;;19.40;59.50;;;;;;5072612;28;20044;-60
2023/01/09 02:45:08;;;;;;;1.23;0.40;;;19.40;59.50;;;;;;5053993;28;20101;-60
2023/01/09 02:47:35;;;;;;;0.63;0.40;;;19.40;59.50;;;;;;5071044;28;20488;-60
2023/01/09 02:50:02;;;;;;;1.00;0.52;;;19.40;59.50;;;;;;5070858;28;20048;-60
2023/01/09 02:52:39;;;;;;;1.17;0.30;;;19.40;59.60;;;;;;5070336;28;20586;-61
2023/01/09 02:55:26;;;;;;;2.47;0.57;;;19.40;59.50;;;;;;5072303;28;20044;-60
2023/01/09 02:58:03;;;;;;;1.75;0.40;;;19.40;59.60;;;;;;5071565;28;20044;-61
2023/01/09 03:00:41;;;;;;;0.82;0.40;;;19.40;59.60;;;;;;5070757;28;20520;-60
2023/01/09 03:03:10;;;;;;;1.17;0.35;;;19.30;60.20;;;;;;5072270;28;20052;-60
2023/01/09 03:05:50;;;;;;;0.80;0.40;;;19.40;59.60;;;;;;5053123;28;20508;-60
2023/01/09 03:08:20;;;;;;;1.63;0.40;;;19.30;59.50;;;;;;5070608;28;20412;-60
2023/01/09 03:10:59;;;;;;;1.10;0.40;;;19.30;59.50;;;;;;5065729;28;20044;-60
2023/01/09 03:13:27;;;;;;;2.22;0.50;;;19.30;59.50;;;;;;5048349;28;20042;-60
2023/01/09 03:15:53;;;;;;;1.63;0.57;;;19.30;59.50;;;;;;5030812;28;20386;-60
2023/01/09 03:18:21;;;;;;;1.70;0.65;;;19.30;59.50;;;;;;5030259;28;20520;-60
2023/01/09 03:20:46;;;;;;;1.48;0.50;;;19.30;59.60;;;;;;5013735;28;20045;-60
2023/01/09 03:23:12;;;;;;;1.08;0.45;;;19.30;59.60;;;;;;5064159;28;20033;-60
2023/01/09 03:25:38;;;;;;;1.77;0.50;;;19.30;59.60;;;;;;5050624;28;20041;-60
2023/01/09 03:28:09;;;;;;;1.98;0.52;;;19.30;59.60;;;;;;5051419;28;20087;-60
2023/01/09 03:30:35;;;;;;;1.63;0.52;;;19.30;59.60;;;;;;5050859;28;20535;-60
2023/01/09 03:33:00;;;;;;;1.65;0.40;;;19.30;59.60;;;;;;5052010;28;20053;-60
2023/01/09 03:35:26;;;;;;;2.38;0.50;;;19.30;59.60;;;;;;5050061;28;20373;-60
2023/01/09 03:37:52;;;;;;;1.15;0.55;;;19.30;59.60;;;;;;5052626;28;20045;-60
2023/01/09 03:40:18;;;;;;;2.03;0.40;;;19.30;59.50;;;;;;5054899;28;20114;-60
2023/01/09 03:42:44;;;;;;;1.50;0.40;;;19.30;59.60;;;;;;5055952;28;20052;-60
2023/01/09 03:45:09;;;;;;;0.88;0.40;;;19.30;59.50;;;;;;5054027;28;20045;-60
2023/01/09 03:47:35;;;;;;;1.13;0.50;;;19.30;59.50;;;;;;5054907;28;20045;-60
2023/01/09 03:50:01;;;;;;;1.75;0.50;;;19.30;59.50;;;;;;5055120;28;20127;-60
2023/01/09 03:52:26;;;;;;;0.95;0.40;;;19.30;59.50;;;;;;5055465;28;20484;-61
2023/01/09 03:54:52;;;;;;;1.08;0.45;;;19.30;59.50;;;;;;5053774;28;20044;-60
2023/01/09 03:57:17;;;;;;;0.85;0.38;;;19.30;59.50;;;;;;5055654;28;20500;-60
2023/01/09 03:59:43;;;;;;;0.88;0.30;;;19.30;59.50;;;;;;5054773;28;20053;-60
2023/01/09 04:02:08;;;;;;;1.15;0.50;;;19.30;59.50;;;;;;5035781;28;20052;-61
2023/01/09 04:04:34;;;;;;;0.95;0.45;;;19.30;59.50;;;;;;5035286;28;20137;-60
2023/01/09 04:06:59;;;;;;;1.27;0.40;;;19.30;59.50;;;;;;5035834;28;20045;-60
2023/01/09 04:09:25;;;;;;;1.52;0.40;;;19.30;59.50;;;;;;5034567;28;20041;-60
2023/01/09 04:11:50;;;;;;;1.45;0.50;;;19.30;59.50;;;;;;5035076;28;20049;-60
2023/01/09 04:14:16;;;;;;;1.33;0.38;;;19.40;59.50;;;;;;5033919;28;20045;-60
2023/01/09 04:16:42;;;;;;;0.95;0.40;;;19.40;59.50;;;;;;5050330;28;20440;-60
2023/01/09 04:19:07;;;;;;;0.63;0.30;;;19.40;59.50;;;;;;5074792;28;20099;-60
2023/01/09 04:21:33;;;;;;;1.25;0.47;;;19.40;59.50;;;;;;5074847;28;20492;-60
2023/01/09 04:23:58;;;;;;;1.05;0.40;;;19.40;59.40;;;;;;5074430;28;20040;-60
2023/01/09 04:26:24;;;;;;;1.27;0.45;;;19.40;59.40;;;;;;5075041;28;20400;-61
2023/01/09 04:28:49;;;;;;;1.00;0.40;;;19.40;59.40;;;;;;5074952;28;20051;-61
2023/01/09 04:31:15;;;;;;;0.85;0.40;;;19.50;59.50;;;;;;5074039;28;20044;-61
2023/01/09 04:33:41;;;;;;;1.70;0.50;;;19.50;59.40;;;;;;5069544;28;20040;-61
2023/01/09 04:36:07;;;;;;;1.13;0.50;;;19.50;59.40;;;;;;5075131;28;20483;-61
2023/01/09 04:38:32;;;;;;;1.02;0.45;;;19.50;59.40;;;;;;5074079;28;20047;-61
2023/01/09 04:40:58;;;;;;;1.45;0.57;;;19.50;59.40;;;;;;5075190;28;20391;-60
2023/01/09 04:43:24;;;;;;;1.08;0.55;;;19.50;59.30;;;;;;5074046;28;20041;-61
2023/01/09 04:45:49;;;;;;;0.82;0.40;;;19.50;59.40;;;;;;5073130;28;20090;-60
2023/01/09 04:48:15;;;;;;;0.73;0.40;;;19.60;59.40;;;;;;5072858;28;20048;-61
2023/01/09 04:50:40;;;;;;;1.25;0.35;;;19.60;59.40;;;;;;5073876;28;20119;-60
2023/01/09 04:53:06;;;;;;;1.25;0.40;;;19.60;59.30;;;;;;5074607;28;20080;-60
2023/01/09 04:55:32;;;;;;;1.38;0.50;;;19.60;59.30;;;;;;5074660;28;20037;-60
2023/01/09 04:57:57;;;;;;;1.15;0.30;;;19.60;59.30;;;;;;5073503;28;20440;-61
2023/01/09 05:00:23;;;;;;;0.70;0.30;;;19.60;59.30;;;;;;5074355;28;20037;-61
2023/01/09 05:02:48;;;;;;;2.92;0.60;;;19.70;59.30;;;;;;5060849;28;20059;-61
2023/01/09 05:05:14;;;;;;;1.52;0.30;;;19.70;59.30;;;;;;5052434;28;20057;-61
2023/01/09 05:07:40;;;;;;;1.65;0.40;;;19.70;59.30;;;;;;5053951;28;20053;-61
2023/01/09 05:10:06;;;;;;;1.10;0.40;;;19.70;59.30;;;;;;5052902;28;20037;-61
2023/01/09 05:12:33;;;;;;;1.08;0.30;;;19.70;59.30;;;;;;5053333;28;20041;-61
2023/01/09 05:14:59;;;;;;;2.08;0.52;;;19.70;59.30;;;;;;5054286;28;20045;-61
2023/01/09 05:17:24;;;;;;;1.30;0.65;;;19.70;59.30;;;;;;5054108;28;20481;-61
2023/01/09 05:19:50;;;;;;;1.52;0.43;;;19.70;59.30;;;;;;5052846;28;20386;-60
2023/01/09 05:22:15;;;;;;;1.23;0.32;;;19.80;59.30;;;;;;5053922;28;20052;-60
2023/01/09 05:24:41;;;;;;;0.80;0.30;;;19.80;59.30;;;;;;5053907;28;20071;-60
2023/01/09 05:27:06;;;;;;;1.90;0.57;;;19.70;59.20;;;;;;5052066;28;20037;-60
2023/01/09 05:29:32;;;;;;;1.40;0.32;;;19.80;59.30;;;;;;5053528;28;20071;-60
2023/01/09 05:31:58;;;;;;;1.27;0.30;;;19.80;59.20;;;;;;5052459;28;20599;-60
2023/01/09 05:34:23;;;;;;;0.90;0.40;;;19.80;59.30;;;;;;5052715;28;20045;-60
2023/01/09 05:36:49;;;;;;;0.82;0.40;;;19.80;59.30;;;;;;5053718;28;20045;-60
2023/01/09 05:39:15;;;;;;;0.88;0.47;;;19.80;59.20;;;;;;5053593;28;20492;-60
2023/01/09 05:41:40;;;;;;;1.08;0.47;;;19.80;59.20;;;;;;5052638;28;20048;-61
2023/01/09 05:44:06;;;;;;;2.45;0.65;;;19.80;59.20;;;;;;5053468;28;20045;-60
2023/01/09 05:46:31;;;;;;;1.50;0.40;;;19.80;59.20;;;;;;5053335;28;20037;-60
2023/01/09 05:48:57;;;;;;;2.03;0.50;;;19.80;59.20;;;;;;5052791;28;20036;-60
2023/01/09 05:51:22;;;;;;;0.63;0.32;;;19.80;59.20;;;;;;5051718;28;20130;-60
2023/01/09 05:53:48;;;;;;;2.08;0.45;;;19.80;59.20;;;;;;5047391;28;20053;-60
2023/01/09 05:56:14;;;;;;;1.80;0.40;;;19.80;59.20;;;;;;5053420;28;20041;-60
2023/01/09 05:58:39;;;;;;;1.83;0.40;;;19.80;59.20;;;;;;5053433;28;20052;-60
2023/01/09 06:01:05;;;;;;;0.90;0.40;;;19.80;59.10;;;;;;5051797;28;20047;-60
2023/01/09 06:03:31;;;;;;;1.58;0.50;;;19.90;59.20;;;;;;5051879;28;20045;-60
2023/01/09 06:05:56;;;;;;;0.88;0.32;;;19.80;59.80;;;;;;5053109;28;20045;-61
2023/01/09 06:08:22;;;;;;;1.33;0.40;;;19.90;59.20;;;;;;5051440;28;20082;-61
2023/01/09 06:10:47;;;;;;;0.75;0.35;;;19.90;59.20;;;;;;5053034;28;20493;-61
2023/01/09 06:13:13;;;;;;;1.33;0.45;;;19.90;59.20;;;;;;5051816;28;20107;-60
2023/01/09 06:15:39;;;;;;;1.30;0.35;;;19.90;59.10;;;;;;5052146;28;20413;-60
2023/01/09 06:18:04;;;;;;;1.20;0.40;;;19.90;59.10;;;;;;5051387;28;20067;-60
2023/01/09 06:20:31;;;;;;;0.90;0.40;;;19.90;59.20;;;;;;5051595;28;20124;-61
2023/01/09 06:22:56;;;;;;;0.98;0.45;;;19.90;59.10;;;;;;5043417;28;20136;-60
2023/01/09 06:25:22;;;;;;;1.15;0.40;;;19.90;59.10;;;;;;5032705;28;20033;-60
2023/01/09 06:27:48;;;;;;;0.65;0.38;;;19.90;59.10;;;;;;5032759;28;20107;-60
2023/01/09 06:30:14;;;;;;;1.20;0.40;;;19.90;59.10;;;;;;5031523;28;20045;-60
2023/01/09 06:32:39;;;;;;;0.73;0.40;;;19.90;59.10;;;;;;5032630;28;20045;-61
2023/01/09 06:35:05;;;;;;;1.27;0.38;;;19.90;59.10;;;;;;5032752;28;20068;-60
2023/01/09 06:37:32;;;;;;;1.45;0.30;;;19.90;59.00;;;;;;5031792;28;20041;-61
2023/01/09 06:39:58;;;;;;;1.52;0.40;;;19.90;59.10;;;;;;5032130;28;20370;-60
2023/01/09 06:42:23;;;;;;;2.15;0.50;;;19.90;59.10;;;;;;5031879;28;20042;-61
2023/01/09 06:44:49;;;;;;;0.63;0.30;;;19.90;59.00;;;;;;5051152;28;20040;-61
2023/01/09 06:47:14;;;;;;;0.82;0.30;;;19.90;59.00;;;;;;5052530;28;20051;-60
2023/01/09 06:49:40;;;;;;;1.50;0.30;;;19.90;59.00;;;;;;5052788;28;20354;-60
2023/01/09 06:52:06;;;;;;;0.93;0.50;;;19.90;59.00;;;;;;5051581;28;20135;-61
2023/01/09 06:54:33;;;;;;;1.13;0.43;;;19.90;59.00;;;;;;5052170;28;20082;-61
2023/01/09 06:56:58;;;;;;;0.65;0.30;;;19.90;59.00;;;;;;5052701;28;20095;-61
2023/01/09 06:59:24;;;;;;;0.77;0.30;;;19.90;59.00;;;;;;5051686;28;20500;-60
2023/01/09 07:01:49;;;;;;;1.77;0.55;;;19.90;58.90;;;;;;5051757;28;20049;-60
2023/01/09 07:04:16;;;;;;;1.08;0.30;;;19.90;58.90;;;;;;5051360;28;20127;-61
2023/01/09 07:06:42;;;;;;;1.15;0.43;;;19.90;58.90;;;;;;5050825;28;20045;-61
2023/01/09 07:09:12;;;;;;;2.67;0.40;;;19.90;58.90;;;;;;5032373;28;20515;-61
2023/01/09 07:11:38;;;;;;;1.00;0.60;;;19.90;58.90;;;;;;5031781;28;20162;-60
2023/01/09 07:14:03;;;;;;;0.70;0.30;;;19.90;58.90;;;;;;5025768;28;20060;-61
2023/01/09 07:16:29;;;;;;;1.33;0.28;;;19.90;58.90;;;;;;5032222;28;20046;-61
2023/01/09 07:18:54;;;;;;;0.70;0.40;;;19.90;58.90;;;;;;5031544;28;20057;-61
2023/01/09 07:21:20;;;;;;;0.95;0.40;;;19.90;58.90;;;;;;5031993;28;20128;-60
2023/01/09 07:23:46;;;;;;;0.80;0.40;;;19.90;58.90;;;;;;5032530;28;20084;-61
2023/01/09 07:26:11;;;;;;;1.55;0.30;;;19.90;58.90;;;;;;5031624;28;20507;-61
2023/01/09 07:28:37;;;;;;;1.85;0.35;;;19.90;58.80;;;;;;5032591;28;20069;-60
2023/01/09 07:31:03;;;;;;;1.20;0.43;;;19.90;58.90;;;;;;5032482;28;20041;-60
2023/01/09 07:33:29;;;;;;;0.82;0.30;;;19.90;58.80;;;;;;5031344;28;20049;-60
2023/01/09 07:35:54;;;;;;;1.83;0.40;;;19.90;58.80;;;;;;5031322;28;20496;-60
2023/01/09 07:38:20;;;;;;;1.38;0.30;;;19.90;58.80;;;;;;5031904;28;20048;-60
2023/01/09 07:40:45;;;;;;;1.77;0.40;;;19.90;58.90;;;;;;5031583;28;20111;-60
2023/01/09 07:43:11;;;;;;;1.30;0.40;;;19.90;58.80;;;;;;5030726;28;20129;-60
2023/01/09 07:45:36;;;;;;;9.13;0.77;;;19.90;58.90;;;;;;5032493;28;20037;-60
2023/01/09 07:48:02;;;;;;;0.88;0.40;;;19.90;58.80;;;;;;5031683;28;20503;-60
2023/01/09 07:50:28;;;;;;;1.38;0.38;;;19.90;58.90;;;;;;5032016;28;20384;-60
2023/01/09 07:52:53;;;;;;;1.63;0.60;;;19.90;58.90;;;;;;5032083;28;20046;-60
2023/01/09 07:55:19;;;;;;;5.78;0.57;;;19.90;58.90;;;;;;5031179;28;20108;-59
2023/01/09 07:57:49;;;;;;;2.03;0.55;;;19.90;58.90;;;;;;5032183;28;20041;-60
2023/01/09 08:00:14;;;;;;;2.25;0.40;;;19.90;59.00;;;;;;5031884;28;20045;-60
2023/01/09 08:02:40;;;;;;;2.40;0.50;;;19.90;59.00;;;;;;5033313;28;20179;-59
2023/01/09 08:05:07;;;;;;;2.30;0.35;;;19.90;59.20;;;;;;5051597;28;20045;-60
2023/01/09 08:07:33;;;;;;;2.53;0.83;;;20.00;59.50;;;;;;5050553;28;20445;-59
2023/01/09 08:09:59;;;;;;;5.53;0.55;;;20.00;59.60;;;;;;5052106;28;20547;-59
2023/01/09 08:12:24;;;;;;;3.85;0.50;;;20.00;59.70;;;;;;5051601;28;20069;-60
2023/01/09 08:14:50;;;;;;;2.42;0.50;;;20.00;59.80;;;;;;5051205;28;20493;-60
2023/01/09 08:17:15;;;;;;;2.65;0.40;;;20.00;60.50;;;;;;5051778;28;20085;-59
2023/01/09 08:19:42;;;;;;;2.80;0.40;;;20.00;60.00;;;;;;5050021;28;20045;-59
2023/01/09 08:22:08;;;;;;;2.40;0.45;;;20.00;60.10;;;;;;5051126;28;20099;-59
2023/01/09 08:24:35;;;;;;;3.60;0.57;;;20.00;60.20;;;;;;5053338;28;20037;-59
2023/01/09 08:27:01;;;;;;;1.10;0.40;;;20.10;60.20;;;;;;5050360;28;20053;-59
2023/01/09 08:29:27;;;;;;;2.42;0.40;;;20.10;60.30;;;;;;5054441;28;20098;-59
2023/01/09 08:31:53;;;;;;;1.17;0.88;;;20.10;60.40;;;;;;5055399;28;20033;-59
2023/01/09 08:34:18;;;;;;;3.35;0.40;;;20.10;60.40;;;;;;5054485;28;20047;-59
2023/01/09 08:36:44;;;;;;;0.80;0.40;;;20.10;60.40;;;;;;5043110;28;20060;-59
2023/01/09 08:39:10;;;;;;;3.97;0.75;;;20.10;60.40;;;;;;5053905;28;20057;-60
2023/01/09 08:47:04;;;;;;;2.20;0.40;;;20.10;60.40;;;;;;5053856;28;20049;-58
2023/01/09 08:49:30;;;;;;;3.60;0.40;;;20.10;60.30;;;;;;5053899;28;20037;-59
2023/01/09 08:51:55;;;;;;;0.98;0.30;;;20.10;60.40;;;;;;5053745;28;20511;-59
2023/01/09 08:54:21;;;;;;;3.42;0.45;;;20.20;60.40;;;;;;5054348;28;20081;-59
2023/01/09 08:56:46;;;;;;;1.58;0.50;;;20.10;60.30;;;;;;5053986;28;20033;-59
2023/01/09 08:59:12;;;;;;;2.50;0.50;;;20.10;60.40;;;;;;5053817;28;20033;-59
2023/01/09 09:01:37;;;;;;;1.48;0.40;;;20.10;60.40;;;;;;5054458;28;20462;-59
2023/01/09 09:04:04;;;;;;;1.13;0.43;;;20.10;60.40;;;;;;5052935;28;20045;-59
2023/01/09 09:06:30;;;;;;;1.80;0.38;;;20.10;60.40;;;;;;5054163;28;20068;-59
2023/01/09 09:08:56;;;;;;;1.83;0.30;;;20.10;60.40;;;;;;5053250;28;20048;-59
2023/01/09 09:11:21;;;;;;;2.60;0.35;;;20.10;60.40;;;;;;5053402;28;20397;-59
2023/01/09 09:13:47;;;;;;;1.92;0.40;;;20.10;60.50;;;;;;5054231;28;20041;-58
2023/01/09 09:16:13;;;;;;;2.50;0.40;;;20.20;60.50;;;;;;5052609;28;20447;-59
2023/01/09 09:18:38;;;;;;;2.80;0.60;;;20.10;60.40;;;;;;5052409;28;20064;-59
2023/01/09 09:21:04;;;;;;;2.45;0.40;;;20.10;61.10;;;;;;5053944;28;20079;-59
2023/01/09 09:23:29;;;;;;;3.00;0.60;;;20.10;60.40;;;;;;5053957;28;20037;-59
2023/01/09 09:25:55;;;;;;;0.93;0.30;;;20.20;60.50;;;;;;5047868;28;20052;-59
2023/01/09 09:28:20;;;;;;;0.85;0.30;;;20.10;60.40;;;;;;5053502;28;20037;-59
2023/01/09 09:30:46;;;;;;;3.58;0.47;;;20.20;60.50;;;;;;5053665;28;20067;-59
2023/01/09 09:33:11;;;;;;;3.13;0.40;;;20.20;60.50;;;;;;5052464;28;20051;-59
2023/01/09 09:35:37;;;;;;;1.20;0.50;;;20.20;60.60;;;;;;5052672;28;20238;-59
2023/01/09 09:38:03;;;;;;;3.40;0.30;;;20.20;60.50;;;;;;5053130;28;20091;-59
2023/01/09 09:40:38;;;;;;;2.17;0.40;;;20.20;60.60;;;;;;5052824;28;20122;-58
2023/01/09 09:46:07;;;;;;;3.00;0.50;;;20.20;60.60;;;;;;5052768;28;20124;-59
2023/01/09 09:48:32;;;;;;;1.67;0.40;;;20.20;60.60;;;;;;5071358;28;20116;-59
2023/01/09 09:51:16;;;;;;;1.35;0.40;;;20.20;60.50;;;;;;5073307;28;20401;-59
2023/01/09 09:54:10;;;;;;;1.52;0.35;;;20.20;60.50;;;;;;5072398;28;20047;-59
2023/01/09 09:56:40;;;;;;;2.10;0.32;;;20.20;60.50;;;;;;5071989;28;20543;-59
2023/01/09 09:59:18;;;;;;;2.88;0.60;;;20.20;60.50;;;;;;5071837;28;20049;-59
2023/01/09 10:02:15;;;;;;;3.25;0.50;;;20.20;60.40;;;;;;5072924;28;20048;-59
2023/01/09 10:04:44;;;;;;;2.65;0.45;;;20.20;60.30;;;;;;5073398;28;20045;-59
2023/01/09 10:07:36;;;;;;;0.88;0.30;;;20.20;60.10;;;;;;5071442;28;20480;-60
2023/01/09 10:10:04;;;;;;;2.65;0.50;;;20.20;60.00;;;;;;5071806;28;20194;-60
2023/01/09 10:12:30;;;;;;;;;;;20.20;60.00;;;;;;5072270;28;20076;-60
2023/01/09 10:15:20;;;;;;;4.80;0.50;;;20.20;60.00;;;;;;5071012;28;20294;-60
2023/01/09 10:18:13;;;;;;;2.75;0.45;;;20.20;60.00;;;;;;5061531;28;20122;-61
2023/01/09 10:20:53;;;;;;;2.65;0.50;;;20.20;60.10;;;;;;5072962;28;20123;-60
2023/01/09 10:24:03;;;;;;;2.42;0.50;;;20.20;60.00;;;;;;5055119;28;20770;-61
2023/01/09 10:26:42;;;;;;;2.80;0.75;;;20.20;60.60;;;;;;5021280;28;20078;-59
2023/01/09 10:29:25;;;;;;;3.05;0.70;;;20.20;60.00;;;;;;5051087;28;20156;-59
2023/01/09 10:32:23;;;;;;;4.35;0.40;;;20.20;60.30;;;;;;5053023;28;20041;-59
2023/01/09 10:34:55;;;;;;;1.95;0.40;;;20.20;60.90;;;;;;5018471;28;20504;-59
2023/01/09 10:37:32;;;;;;;2.50;0.45;;;20.20;60.30;;;;;;5052024;28;20083;-60
2023/01/09 10:40:02;;;;;;;3.08;0.55;;;20.20;60.30;;;;;;5051914;28;20105;-59
2023/01/09 10:42:46;;;;;;;4.25;0.80;;;20.20;60.30;;;;;;5033905;28;20048;-59
2023/01/09 10:45:19;;;;;;;4.22;0.50;;;20.20;60.20;;;;;;5050797;28;20053;-59
2023/01/09 10:47:45;;;;;;;1.38;0.50;;;20.20;60.20;;;;;;5051217;28;20052;-59
2023/01/09 10:50:18;;;;;;;4.40;0.40;;;20.20;60.20;;;;;;5048570;28;20081;-59
2023/01/09 10:52:43;;;;;;;3.08;0.40;;;20.20;60.20;;;;;;5050635;28;20525;-59
2023/01/09 10:55:38;;;;;;;3.08;0.47;;;20.20;60.20;;;;;;5050841;28;20532;-59
2023/01/09 10:58:14;;;;;;;1.40;0.40;;;20.20;60.20;;;;;;5050977;28;20052;-59
2023/01/09 11:00:40;;;;;;;2.00;0.82;;;20.10;60.20;;;;;;5051507;28;20053;-59
2023/01/09 11:03:11;;;;;;;2.45;0.63;;;20.20;60.30;;;;;;5049916;28;20036;-59
2023/01/09 11:05:37;;;;;;;2.33;0.50;;;20.10;60.20;;;;;;5034517;28;20080;-59
2023/01/09 11:08:11;;;;;;;3.00;0.40;;;20.10;60.20;;;;;;5052040;28;20510;-59
2023/01/09 11:10:54;;;;;;;2.20;0.50;;;20.20;60.20;;;;;;5050512;28;20475;-59
2023/01/09 11:13:20;;;;;;;3.35;0.50;;;20.10;60.20;;;;;;5050532;28;20123;-59
2023/01/09 11:15:57;;;;;;;1.58;0.43;;;20.10;60.20;;;;;;5052266;28;20037;-59
2023/01/09 11:18:23;;;;;;;1.15;0.43;;;20.10;60.10;;;;;;5042204;28;20052;-59
2023/01/09 11:20:49;;;;;;;2.00;0.60;;;20.10;60.30;;;;;;5050219;28;20056;-59
2023/01/09 11:23:31;;;;;;;2.92;0.50;;;20.20;60.30;;;;;;5047554;28;20032;-60
2023/01/09 11:25:59;;;;;;;3.83;0.57;;;20.10;60.30;;;;;;5048144;28;20045;-61
2023/01/09 11:28:24;;;;;;;4.93;0.40;;;20.10;60.20;;;;;;5049187;28;20074;-59
2023/01/09 11:30:55;;;;;;;3.72;0.50;;;20.10;60.30;;;;;;5051864;28;20068;-60
2023/01/09 11:33:25;;;;;;;3.42;0.60;;;20.10;60.30;;;;;;5045681;28;20045;-60
2023/01/09 11:35:55;;;;;;;4.60;0.50;;;20.10;60.30;;;;;;5050644;28;20128;-59
2023/01/09 11:38:21;;;;;;;7.20;0.68;;;20.10;60.20;;;;;;5051367;28;20045;-59
2023/01/09 11:40:51;;;;;;;4.90;0.63;;;20.10;60.20;;;;;;5051106;28;20052;-59
2023/01/09 11:43:19;;;;;;;1.95;0.50;;;20.10;60.30;;;;;;5050865;28;20557;-60
2023/01/09 11:45:48;;;;;;;;;;;20.10;60.30;;;;;;5052148;28;20048;-59
2023/01/09 11:48:39;;;;;;;6.25;0.63;;;20.10;60.40;;;;;;5051905;28;20292;-60
2023/01/09 11:51:20;;;;;;;3.67;0.60;;;20.10;60.50;;;;;;5034086;28;20127;-59
2023/01/09 11:54:11;;;;;;;3.33;0.60;;;20.00;60.40;;;;;;5050842;28;20045;-59
2023/01/09 11:56:36;;;;;;;1.65;0.50;;;20.00;60.50;;;;;;5052265;28;20124;-59
2023/01/09 11:59:10;;;;;;;2.38;0.50;;;20.00;60.50;;;;;;5051452;28;20112;-58
2023/01/09 12:01:46;;;;;;;3.33;0.73;;;20.00;60.50;;;;;;5054222;28;20079;-59
2023/01/09 12:04:22;;;;;;;3.17;0.60;;;20.00;60.60;;;;;;5054514;28;20040;-59
2023/01/09 12:06:59;;;;;;;2.47;0.80;;;20.00;60.60;;;;;;5040348;28;20053;-60
2023/01/09 12:09:34;;;;;;;2.92;0.80;;;20.00;60.70;;;;;;5052996;28;20065;-58
2023/01/09 12:12:13;;;;;;;5.72;0.93;;;19.90;60.60;;;;;;5021299;28;20045;-58
2023/01/09 12:15:00;;;;;;;3.05;0.60;;;20.00;60.80;;;;;;5036975;28;20040;-58
2023/01/09 12:17:36;;;;;;;4.05;0.65;;;19.90;60.80;;;;;;5036881;28;20069;-58
2023/01/09 12:20:27;;;;;;;2.75;0.80;;;19.90;60.90;;;;;;5053494;28;20049;-58
2023/01/09 12:23:10;;;;;;;5.38;1.02;;;20.00;61.00;;;;;;5052711;28;20055;-58
2023/01/09 12:26:16;;;;;;;2.63;0.70;;;19.90;60.90;;;;;;5037981;28;20102;-58
2023/01/09 12:29:04;;;;;;;2.70;0.70;;;19.90;60.90;;;;;;5017954;28;20053;-58
2023/01/09 12:32:07;;;;;;;3.20;0.80;;;19.90;60.90;;;;;;5052083;28;20045;-58
2023/01/09 12:34:55;;;;;;;5.03;0.98;;;19.90;60.90;;;;;;5043609;28;20067;-58
2023/01/09 12:37:41;;;;;;;;;;;19.90;60.90;;;;;;5048779;28;20080;-58
2023/01/09 12:40:19;;;;;;;4.70;0.98;;;19.90;61.10;;;;;;5044509;28;19932;-59
2023/01/09 12:43:00;;;;;;;2.28;0.52;;;19.90;61.10;;;;;;5050954;28;20044;-59
2023/01/09 12:45:33;;;;;;;1.98;0.50;;;20.00;61.10;;;;;;5054209;28;20127;-59
2023/01/09 12:48:20;;;;;;;3.83;0.68;;;20.00;61.20;;;;;;5053346;28;20072;-58
2023/01/09 12:50:49;;;;;;;3.53;0.60;;;20.00;61.20;;;;;;5053677;28;20048;-58
2023/01/09 12:53:17;;;;;;;4.03;0.77;;;20.00;61.20;;;;;;5053039;28;20041;-59
2023/01/09 12:55:45;;;;;;;1.93;0.70;;;20.00;61.20;;;;;;5052775;28;20053;-58
2023/01/09 12:58:26;;;;;;;;;;;20.00;61.30;;;;;;5053212;28;20045;-58
2023/01/09 13:00:51;;;;;;;4.40;0.70;;;20.00;61.20;;;;;;5070003;28;20007;-59
2023/01/09 13:03:40;;;;;;;2.40;0.73;;;20.00;61.10;;;;;;5053281;28;20132;-58
2023/01/09 13:06:06;;;;;;;3.38;0.70;;;20.00;61.10;;;;;;5042335;28;20054;-58
2023/01/09 13:08:37;;;;;;;1.83;0.90;;;20.10;61.20;;;;;;5033647;28;20049;-58
2023/01/09 13:11:14;;;;;;;4.00;1.20;;;20.10;61.20;;;;;;5015841;28;20049;-58
2023/01/09 13:14:01;;;;;;;3.70;1.08;;;20.10;61.10;;;;;;5049677;28;20386;-58